Terminal Aerodrome Forecast
Issued by NWS Albany, NY

Home | Current Version | Previous Version | Text Only | Print | Product List | Glossary On
Versions: 1 2 3 4 5 6 7 8 9 10 11 12 13 14 15 16 17 18 19 20 21 22
000
FTUS41 KALY 051339 AAA
TAFPOU
TAF AMD
KPOU 051339Z 0514/0612 VRB03KT 5SM HZ SCT004
     FM051430 27005KT P6SM SCT060
     FM060000 00000KT P6SM SKC
     FM060900 00000KT 4SM BR SKC=

USA.gov is the U.S. government's official web portal to all federal, state and local government web resources and services.